Terminal Aerodrome Forecast
Issued by NWS

Home | Current Version | Previous Version | Text Only | Print | Product List | Glossary On
Versions: 1 2 3 4 5 6 7 8 9 10 11 12 13 14 15
057
FTPA31 PHFO 041140
TAFHNY
TAF
PHNY 041140Z 0412/0512 03008KT P6SM SCT015
      TEMPO 0412/0415 BKN015
     FM042200 24005KT P6SM SCT025
      TEMPO 0422/0501 BKN025
     FM050100 02010KT P6SM SCT025
     FM050600 VRB03KT P6SM SCT025=

USA.gov is the U.S. government's official web portal to all federal, state and local government web resources and services.